Time;durP1;ratioP1;P1;durP2;ratioP2;P2;SDS_P1;SDS_P2;PMS_P1;PMS_P2;Temp;Humidity;BMP_temperature;BMP_pressure;BME280_temperature;BME280_humidity;BME280_pressure;Samples;Min_cycle;Max_cycle;Signal;HPM_P1;HPM_P2
2024/02/19 00:01:05;;;;;;;;;;;;;;;-144.99;100.00;52586.69;5037266;28;19956;-67
2024/02/19 00:03:32;;;;;;;;;;;;;;;-144.99;100.00;52586.69;5036294;28;19952;-67
2024/02/19 00:06:00;;;;;;;;;;;;;;;-144.99;100.00;52594.84;5032869;28;19952;-68
2024/02/19 00:08:26;;;;;;;;;;;;;;;-144.99;100.00;52588.75;5033784;28;19939;-69
2024/02/19 00:10:53;;;;;;;;;;;;;;;-144.99;100.00;52631.53;5036539;28;19929;-67
2024/02/19 00:13:19;;;;;;;;;;;;;;;-144.99;100.00;52582.63;5027545;28;20370;-60
2024/02/19 00:15:46;;;;;;;;;;;;;;;-144.99;100.00;52607.09;5033432;28;20446;-60
2024/02/19 00:18:12;;;;;;;;;;;;;;;-144.99;100.00;52550.00;5034010;28;19929;-61
2024/02/19 00:20:39;;;;;;;;;;;;;;;-144.99;100.00;52635.63;5044611;28;19981;-62
2024/02/19 00:23:07;;;;;;;;;;;;;;;-144.99;100.00;52607.09;5037975;28;20024;-62
2024/02/19 00:25:33;;;;;;;;;;;;;;;-144.99;100.00;52603.00;5041380;28;19935;-70
2024/02/19 00:28:00;;;;;;;;;;;;;;;-144.99;100.00;52574.47;5040431;28;20458;-71
2024/02/19 00:30:27;;;;;;;;;;;;;;;-144.99;100.00;52596.88;5041755;28;20012;-71
2024/02/19 00:32:53;;;;;;;;;;;;;;;-144.99;100.00;52590.78;5039426;28;20045;-69
2024/02/19 00:35:21;;;;;;;;;;;;;;;-144.99;100.00;52594.84;5038376;28;19935;-70
2024/02/19 00:37:47;;;;;;;;;;;;;;;-144.99;100.00;52594.84;5039603;28;19929;-70
2024/02/19 00:40:15;;;;;;;;;;;;;;;-144.99;100.00;52582.63;5036202;28;19977;-70
2024/02/19 00:42:42;;;;;;;;;;;;;;;-144.99;100.00;52590.78;5042259;28;20043;-70
2024/02/19 00:45:09;;;;;;;;;;;;;;;-144.99;100.00;52578.53;5038751;28;20016;-67
2024/02/19 00:47:36;;;;;;;;;;;;;;;-144.99;100.00;52594.84;5043034;28;19960;-67
2024/02/19 00:50:03;;;;;;;;;;;;;;;-144.99;100.00;52582.63;5040658;28;20337;-67
2024/02/19 00:52:29;;;;;;;;;;;;;;;-144.99;100.00;52611.16;5039013;28;19939;-66
2024/02/19 00:54:57;;;;;;;;;;;;;;;-144.99;100.00;52611.16;5040734;28;20163;-66
2024/02/19 00:57:25;;;;;;;;;;;;;;;-144.99;100.00;52582.63;5039845;28;19935;-67
2024/02/19 00:59:52;;;;;;;;;;;;;;;-144.99;100.00;52619.31;5041240;28;19964;-66
2024/02/19 01:02:18;;;;;;;;;;;;;;;-144.99;100.00;52574.47;5042865;28;20012;-66
2024/02/19 01:04:46;;;;;;;;;;;;;;;-144.99;100.00;52558.16;5037785;28;20354;-66
2024/02/19 01:07:15;;;;;;;;;;;;;;;-144.99;100.00;52611.16;5040029;28;19932;-66
2024/02/19 01:09:42;;;;;;;;;;;;;;;-144.99;100.00;52582.63;5052422;28;19964;-66
2024/02/19 01:12:09;;;;;;;;;;;;;;;-144.99;100.00;52594.84;5045539;28;20072;-68
2024/02/19 01:14:37;;;;;;;;;;;;;;;-144.99;100.00;52594.84;5034650;28;19977;-68
2024/02/19 01:17:04;;;;;;;;;;;;;;;-144.99;100.00;52582.63;5037060;28;20397;-69
2024/02/19 01:19:31;;;;;;;;;;;;;;;-144.99;100.00;52574.47;5041740;28;19944;-69
2024/02/19 01:21:58;;;;;;;;;;;;;;;-144.99;100.00;52607.09;5035638;28;20322;-70
2024/02/19 01:24:25;;;;;;;;;;;;;;;-144.99;100.00;52588.75;5131024;22;19936;-69
2024/02/19 01:26:51;;;;;;;;;;;;;;;-144.99;100.00;52607.09;5033909;28;20386;-69
2024/02/19 01:29:18;;;;;;;;;;;;;;;-144.99;100.00;52594.84;5039637;28;19940;-69
2024/02/19 01:31:46;;;;;;;;;;;;;;;-144.99;100.00;52623.38;5028901;28;19961;-69
2024/02/19 01:34:14;;;;;;;;;;;;;;;-144.99;100.00;52580.59;5026487;28;20048;-67
2024/02/19 01:36:40;;;;;;;;;;;;;;;-144.99;100.00;52611.16;5020003;28;19925;-68
2024/02/19 01:39:07;;;;;;;;;;;;;;;-144.99;100.00;52586.69;5019201;28;20020;-68
2024/02/19 01:41:34;;;;;;;;;;;;;;;-144.99;100.00;52603.00;5028683;28;20020;-68
2024/02/19 01:44:01;;;;;;;;;;;;;;;-144.99;100.00;52560.19;5026994;28;20288;-62
2024/02/19 01:46:29;;;;;;;;;;;;;;;-144.99;100.00;52586.69;5028168;28;20106;-63
2024/02/19 01:48:57;;;;;;;;;;;;;;;-144.99;100.00;52631.53;5021978;28;19972;-63
2024/02/19 01:51:24;;;;;;;;;;;;;;;-144.99;100.00;52590.78;5027506;28;20545;-63
2024/02/19 01:53:51;;;;;;;;;;;;;;;-144.99;100.00;52607.09;5022544;28;19983;-63
2024/02/19 01:56:18;;;;;;;;;;;;;;;-144.99;100.00;52574.47;5023801;28;19936;-63
2024/02/19 01:58:45;;;;;;;;;;;;;;;-144.99;100.00;52623.38;5016196;28;19933;-62
2024/02/19 02:01:12;;;;;;;;;;;;;;;-144.99;100.00;52631.53;5019764;28;19929;-64
2024/02/19 02:03:38;;;;;;;;;;;;;;;-144.99;100.00;52615.25;5027201;28;19968;-63
2024/02/19 02:06:06;;;;;;;;;;;;;;;-144.99;100.00;52611.16;5028771;28;19933;-63
2024/02/19 02:08:33;;;;;;;;;;;;;;;-144.99;100.00;52607.09;5023858;28;19999;-63
2024/02/19 02:10:59;;;;;;;;;;;;;;;-144.99;100.00;52607.09;5016470;28;19935;-64
2024/02/19 02:13:26;;;;;;;;;;;;;;;-144.99;100.00;52615.25;5012116;28;19937;-64
2024/02/19 02:15:52;;;;;;;;;;;;;;;-144.99;100.00;52617.28;5024672;28;20067;-63
2024/02/19 02:18:19;;;;;;;;;;;;;;;-144.99;100.00;52619.31;5020332;28;20383;-64
2024/02/19 02:20:46;;;;;;;;;;;;;;;-144.99;100.00;52590.78;5029650;28;20365;-64
2024/02/19 02:23:15;;;;;;;;;;;;;;;-144.99;100.00;52594.84;5025377;28;20036;-66
2024/02/19 02:25:41;;;;;;;;;;;;;;;-144.99;100.00;52619.31;5019869;28;20432;-66
2024/02/19 02:28:10;;;;;;;;;;;;;;;-144.99;100.00;52635.63;5018460;28;19988;-65
2024/02/19 02:30:36;;;;;;;;;;;;;;;-144.99;100.00;52627.47;5016964;28;20394;-65
2024/02/19 02:33:03;;;;;;;;;;;;;;;-144.99;100.00;52586.69;5026929;28;19937;-65
2024/02/19 02:35:30;;;;;;;;;;;;;;;-144.99;100.00;52594.84;5025700;28;19925;-66
2024/02/19 02:37:56;;;;;;;;;;;;;;;-144.99;100.00;52623.38;5020174;28;20038;-67
2024/02/19 02:40:23;;;;;;;;;;;;;;;-144.99;100.00;52615.25;5018665;28;19957;-68
2024/02/19 02:42:49;;;;;;;;;;;;;;;-144.99;100.00;52605.03;5021700;28;20389;-67
2024/02/19 02:45:17;;;;;;;;;;;;;;;-144.99;100.00;52615.25;5027082;28;19929;-68
2024/02/19 02:47:44;;;;;;;;;;;;;;;-144.99;100.00;52582.63;5025363;28;20456;-67
2024/02/19 02:50:10;;;;;;;;;;;;;;;-144.99;100.00;52594.84;5022044;28;19944;-67
2024/02/19 02:52:37;;;;;;;;;;;;;;;-144.99;100.00;52611.16;5022132;28;19972;-68
2024/02/19 02:55:03;;;;;;;;;;;;;;;-144.99;100.00;52635.63;5025868;28;20007;-68
2024/02/19 02:57:30;;;;;;;;;;;;;;;-144.99;100.00;52631.53;5022403;28;19972;-67
2024/02/19 02:59:56;;;;;;;;;;;;;;;-144.99;100.00;52623.38;5023435;28;20020;-69
2024/02/19 03:02:24;;;;;;;;;;;;;;;-144.99;100.00;52603.00;5020151;28;19986;-68
2024/02/19 03:04:51;;;;;;;;;;;;;;;-144.99;100.00;52639.69;4676620;28;10000441;-67
2024/02/19 03:07:17;;;;;;;;;;;;;;;-144.99;100.00;52586.69;5022513;28;20604;-67
2024/02/19 03:09:44;;;;;;;;;;;;;;;-144.99;100.00;52590.78;5026177;28;19952;-67
2024/02/19 03:12:10;;;;;;;;;;;;;;;-144.99;100.00;52607.09;5024012;28;19964;-67
2024/02/19 03:14:37;;;;;;;;;;;;;;;-144.99;100.00;52605.03;5022357;28;19925;-67
2024/02/19 03:17:04;;;;;;;;;;;;;;;-144.99;100.00;52649.88;5023486;28;19925;-68
2024/02/19 03:19:32;;;;;;;;;;;;;;;-144.99;100.00;52623.38;5032175;28;19924;-67
2024/02/19 03:21:59;;;;;;;;;;;;;;;-144.99;100.00;52594.84;5027442;28;19929;-67
2024/02/19 03:24:25;;;;;;;;;;;;;;;-144.99;100.00;52558.16;5027683;28;19964;-66
2024/02/19 03:26:53;;;;;;;;;;;;;;;-144.99;100.00;52631.53;5025457;28;20339;-63
2024/02/19 03:29:20;;;;;;;;;;;;;;;-144.99;100.00;52592.81;5025915;28;20449;-61
2024/02/19 03:31:46;;;;;;;;;;;;;;;-144.99;100.00;52598.94;5020282;28;19979;-63
2024/02/19 03:34:13;;;;;;;;;;;;;;;-144.99;100.00;52607.09;5021173;28;19929;-63
2024/02/19 03:36:42;;;;;;;;;;;;;;;-144.99;100.00;52621.34;5028168;28;19964;-63
2024/02/19 03:39:09;;;;;;;;;;;;;;;-144.99;100.00;52631.53;5026071;28;19972;-63
2024/02/19 03:41:35;;;;;;;;;;;;;;;-144.99;100.00;52615.25;5026175;28;19925;-62
2024/02/19 03:44:02;;;;;;;;;;;;;;;-144.99;100.00;52594.84;5021268;28;19976;-63
2024/02/19 03:46:28;;;;;;;;;;;;;;;-144.99;100.00;52596.88;5020342;28;19979;-63
2024/02/19 03:48:55;;;;;;;;;;;;;;;-144.99;100.00;52594.84;5020225;28;19967;-64
2024/02/19 03:51:22;;;;;;;;;;;;;;;-144.99;100.00;52631.53;5017873;28;19926;-65
2024/02/19 03:53:49;;;;;;;;;;;;;;;-144.99;100.00;52609.13;5019450;28;19933;-64
2024/02/19 03:56:17;;;;;;;;;;;;;;;-144.99;100.00;52603.00;5022899;28;20579;-62
2024/02/19 03:58:44;;;;;;;;;;;;;;;-144.99;100.00;52641.72;5022120;28;19937;-62
2024/02/19 04:01:11;;;;;;;;;;;;;;;-144.99;100.00;52578.53;5026980;28;19929;-62
2024/02/19 04:03:37;;;;;;;;;;;;;;;-144.99;100.00;52639.69;5021503;28;19929;-62
2024/02/19 04:06:04;;;;;;;;;;;;;;;-144.99;100.00;52611.16;5025803;28;20098;-64
2024/02/19 04:08:32;;;;;;;;;;;;;;;-144.99;100.00;52590.78;5026111;28;20457;-62
2024/02/19 04:11:00;;;;;;;;;;;;;;;-144.99;100.00;52603.00;5012034;28;20020;-63
2024/02/19 04:13:26;;;;;;;;;;;;;;;-144.99;100.00;52607.09;5019763;28;19995;-64
2024/02/19 04:15:54;;;;;;;;;;;;;;;-144.99;100.00;52635.63;5018236;28;19932;-64
2024/02/19 04:18:21;;;;;;;;;;;;;;;-144.99;100.00;52596.88;5024795;28;20438;-63
2024/02/19 04:20:47;;;;;;;;;;;;;;;-144.99;100.00;52631.53;5031203;28;20742;-63
2024/02/19 04:23:14;;;;;;;;;;;;;;;-144.99;100.00;52596.88;5022281;28;20040;-63
2024/02/19 04:25:40;;;;;;;;;;;;;;;-144.99;100.00;52617.28;5027792;28;19979;-63
2024/02/19 04:28:08;;;;;;;;;;;;;;;-144.99;100.00;52619.31;5027596;28;19969;-63
2024/02/19 04:30:35;;;;;;;;;;;;;;;-144.99;100.00;52607.09;5022399;28;20011;-63
2024/02/19 04:33:01;;;;;;;;;;;;;;;-144.99;100.00;52607.09;5024761;28;19979;-64
2024/02/19 04:35:27;;;;;;;;;;;;;;;-144.99;100.00;52625.44;5024179;28;19975;-64
2024/02/19 04:37:54;;;;;;;;;;;;;;;-144.99;100.00;52615.25;5026415;28;19925;-64
2024/02/19 04:40:20;;;;;;;;;;;;;;;-144.99;100.00;52639.69;5025820;28;19987;-64
2024/02/19 04:42:47;;;;;;;;;;;;;;;-144.99;100.00;52668.22;5018175;28;19964;-64
2024/02/19 04:45:15;;;;;;;;;;;;;;;-144.99;100.00;52631.53;5024391;28;19968;-65
2024/02/19 04:47:41;;;;;;;;;;;;;;;-144.99;100.00;52607.09;5027579;28;19933;-65
2024/02/19 04:50:09;;;;;;;;;;;;;;;-144.99;100.00;52598.94;5020796;28;19937;-66
2024/02/19 04:52:35;;;;;;;;;;;;;;;-144.99;100.00;52609.13;5025902;28;19925;-66
2024/02/19 04:55:02;;;;;;;;;;;;;;;-144.99;100.00;52627.47;5027308;28;19969;-66
2024/02/19 04:57:28;;;;;;;;;;;;;;;-144.99;100.00;52619.31;5027151;28;20399;-66
2024/02/19 04:59:55;;;;;;;;;;;;;;;-144.99;100.00;52570.38;5017794;28;19938;-61
2024/02/19 05:02:23;;;;;;;;;;;;;;;-144.99;100.00;52631.53;5023638;28;19929;-64
2024/02/19 05:04:50;;;;;;;;;;;;;;;-144.99;100.00;52617.28;5025765;28;19999;-65
2024/02/19 05:07:17;;;;;;;;;;;;;;;-144.99;100.00;52627.47;5017287;28;19928;-64
2024/02/19 05:09:43;;;;;;;;;;;;;;;-144.99;100.00;52625.44;5030531;28;19929;-64
2024/02/19 05:12:10;;;;;;;;;;;;;;;-144.99;100.00;52656.00;5024590;28;19967;-63
2024/02/19 05:14:36;;;;;;;;;;;;;;;-144.99;100.00;52631.53;5025055;28;20375;-64
2024/02/19 05:17:03;;;;;;;;;;;;;;;-144.99;100.00;52631.53;5031190;28;19964;-64
2024/02/19 05:19:32;;;;;;;;;;;;;;;-144.99;100.00;52603.00;5039051;28;19971;-64
2024/02/19 05:21:58;;;;;;;;;;;;;;;-144.99;100.00;52619.31;5029693;28;19935;-72
2024/02/19 05:24:25;;;;;;;;;;;;;;;-144.99;100.00;52627.47;5039025;28;19995;-71
2024/02/19 05:26:51;;;;;;;;;;;;;;;-144.99;100.00;52598.94;5036758;28;19978;-72
2024/02/19 05:29:19;;;;;;;;;;;;;;;-144.99;100.00;52623.38;5028819;28;19929;-72
2024/02/19 05:31:46;;;;;;;;;;;;;;;-144.99;100.00;52611.16;5030592;28;19929;-72
2024/02/19 05:34:12;;;;;;;;;;;;;;;-144.99;100.00;52598.94;5038923;28;19930;-72
2024/02/19 05:36:41;;;;;;;;;;;;;;;-144.99;100.00;52643.78;5047228;28;19929;-72
2024/02/19 05:39:10;;;;;;;;;;;;;;;-144.99;100.00;52564.28;5045552;28;19937;-72
2024/02/19 05:41:36;;;;;;;;;;;;;;;-144.99;100.00;52596.88;5040067;28;19926;-72
2024/02/19 05:44:03;;;;;;;;;;;;;;;-144.99;100.00;52582.63;5042024;28;19965;-72
2024/02/19 05:46:31;;;;;;;;;;;;;;;-144.99;100.00;52623.38;5035086;28;19937;-71
2024/02/19 05:48:58;;;;;;;;;;;;;;;-144.99;100.00;52603.00;5034605;28;19983;-70
2024/02/19 05:51:26;;;;;;;;;;;;;;;-144.99;100.00;52615.25;5044048;28;19925;-71
2024/02/19 05:53:54;;;;;;;;;;;;;;;-144.99;100.00;52635.63;5039160;28;19936;-71
2024/02/19 05:56:21;;;;;;;;;;;;;;;-144.99;100.00;52596.88;5046071;28;19925;-72
2024/02/19 05:58:48;;;;;;;;;;;;;;;-144.99;100.00;52621.34;5048999;28;20208;-71
2024/02/19 06:01:16;;;;;;;;;;;;;;;-144.99;100.00;52635.63;5046673;28;19913;-72
2024/02/19 06:03:43;;;;;;;;;;;;;;;-144.99;100.00;52603.00;5051623;28;20019;-72
2024/02/19 06:06:09;;;;;;;;;;;;;;;-144.99;100.00;52615.25;5046790;28;19925;-72
2024/02/19 06:08:36;;;;;;;;;;;;;;;-144.99;100.00;52619.31;5051646;28;19913;-73
2024/02/19 06:11:05;;;;;;;;;;;;;;;-144.99;100.00;52603.00;5038763;28;19925;-70
2024/02/19 06:13:31;;;;;;;;;;;;;;;-144.99;100.00;52631.53;5026521;28;20008;-67
2024/02/19 06:15:58;;;;;;;;;;;;;;;-144.99;100.00;52635.63;5028287;28;20307;-67
2024/02/19 06:18:25;;;;;;;;;;;;;;;-144.99;100.00;52611.16;5026608;28;20011;-69
2024/02/19 06:20:52;;;;;;;;;;;;;;;-144.99;100.00;52594.84;5034368;28;19929;-68
2024/02/19 06:23:18;;;;;;;;;;;;;;;-144.99;100.00;52660.09;5025339;28;20017;-69
2024/02/19 06:25:45;;;;;;;;;;;;;;;-144.99;100.00;52615.25;5021452;28;19980;-68
2024/02/19 06:28:13;;;;;;;;;;;;;;;-144.99;100.00;52623.38;5030106;28;20064;-71
2024/02/19 06:30:40;;;;;;;;;;;;;;;-144.99;100.00;52635.63;4334225;28;10000449;-71
2024/02/19 06:33:06;;;;;;;;;;;;;;;-144.99;100.00;52623.38;5019625;28;19929;-70
2024/02/19 06:35:33;;;;;;;;;;;;;;;-144.99;100.00;52625.44;5028829;28;19968;-70
2024/02/19 06:37:59;;;;;;;;;;;;;;;-144.99;100.00;52651.94;5019698;28;20014;-72
2024/02/19 06:40:26;;;;;;;;;;;;;;;-144.99;100.00;52635.63;5026298;28;19978;-70
2024/02/19 06:42:53;;;;;;;;;;;;;;;-144.99;100.00;52627.47;5026671;28;20430;-71
2024/02/19 06:45:21;;;;;;;;;;;;;;;-144.99;100.00;52631.53;5026114;28;19929;-70
2024/02/19 06:47:47;;;;;;;;;;;;;;;-144.99;100.00;52590.78;5023605;28;19984;-69
2024/02/19 06:50:14;;;;;;;;;;;;;;;-144.99;100.00;52603.00;5018037;28;19929;-72
2024/02/19 06:52:44;;;;;;;;;;;;;;;-144.99;100.00;52635.63;5024580;28;19925;-70
2024/02/19 06:55:11;;;;;;;;;;;;;;;-144.99;100.00;52635.63;5012621;28;19925;-70
2024/02/19 06:57:38;;;;;;;;;;;;;;;-144.99;100.00;52627.47;5013450;28;20341;-68
2024/02/19 07:00:05;;;;;;;;;;;;;;;-144.99;100.00;52578.53;5024488;28;19926;-69
2024/02/19 07:02:34;;;;;;;;;;;;;;;-144.99;100.00;52603.00;5021475;28;19925;-69
2024/02/19 07:05:01;;;;;;;;;;;;;;;-144.99;100.00;52613.19;5016684;28;19995;-69
2024/02/19 07:07:27;;;;;;;;;;;;;;;-144.99;100.00;52586.69;5022218;28;20051;-68
2024/02/19 07:09:54;;;;;;;;;;;;;;;-144.99;100.00;52582.63;5026435;28;19991;-69
2024/02/19 07:12:20;;;;;;;;;;;;;;;-144.99;100.00;52598.94;5019867;28;19957;-69
2024/02/19 07:14:47;;;;;;;;;;;;;;;-144.99;100.00;52651.94;5012364;28;20013;-68
2024/02/19 07:17:13;;;;;;;;;;;;;;;-144.99;100.00;52603.00;5026488;28;19976;-69
2024/02/19 07:19:41;;;;;;;;;;;;;;;-144.99;100.00;52588.75;5032299;28;19936;-68
2024/02/19 07:22:08;;;;;;;;;;;;;;;-144.99;100.00;52623.38;5017611;28;19981;-68
2024/02/19 07:24:36;;;;;;;;;;;;;;;-144.99;100.00;52635.63;5110191;22;19932;-67
2024/02/19 07:27:02;;;;;;;;;;;;;;;-144.99;100.00;52590.78;5062939;28;19928;-68
2024/02/19 07:29:29;;;;;;;;;;;;;;;-144.99;100.00;52594.84;5063672;28;19979;-68
2024/02/19 07:31:55;;;;;;;;;;;;;;;-144.99;100.00;52627.47;5057016;28;20036;-67
2024/02/19 07:34:22;;;;;;;;;;;;;;;-144.99;100.00;52613.19;5058407;28;20370;-67
2024/02/19 07:36:50;;;;;;;;;;;;;;;-144.99;100.00;52603.00;5059103;28;20410;-67
2024/02/19 07:39:17;;;;;;;;;;;;;;;-144.99;100.00;52580.59;5065489;28;20358;-67
2024/02/19 07:41:44;;;;;;;;;;;;;;;-144.99;100.00;52627.47;5037888;28;19954;-67
2024/02/19 07:44:10;;;;;;;;;;;;;;;-144.99;100.00;52617.28;5058528;28;19932;-67
2024/02/19 07:46:37;;;;;;;;;;;;;;;-144.99;100.00;52598.94;5056204;28;19932;-67
2024/02/19 07:49:03;;;;;;;;;;;;;;;-144.99;100.00;52588.75;5052933;28;19979;-67
2024/02/19 07:51:30;;;;;;;;;;;;;;;-144.99;100.00;52578.53;4714108;28;9999646;-67
2024/02/19 07:53:58;;;;;;;;;;;;;;;-144.99;100.00;52582.63;5060602;28;20323;-68
2024/02/19 07:56:25;;;;;;;;;;;;;;;-144.99;100.00;52598.94;5051327;28;19929;-67
2024/02/19 07:58:51;;;;;;;;;;;;;;;-144.99;100.00;52627.47;5055993;28;19940;-67
2024/02/19 08:01:18;;;;;;;;;;;;;;;-144.99;100.00;52574.47;5059651;28;20013;-67
2024/02/19 08:03:44;;;;;;;;;;;;;;;-144.99;100.00;52603.00;5062920;28;19971;-67
2024/02/19 08:06:11;;;;;;;;;;;;;;;-144.99;100.00;52611.16;5059474;28;20040;-67
2024/02/19 08:08:37;;;;;;;;;;;;;;;-144.99;100.00;52594.84;5061923;28;20035;-67
2024/02/19 08:11:05;;;;;;;;;;;;;;;-144.99;100.00;52600.97;5055555;28;20043;-67
2024/02/19 08:13:31;;;;;;;;;;;;;;;-144.99;100.00;52592.81;5061466;28;20043;-66
2024/02/19 08:15:58;;;;;;;;;;;;;;;-144.99;100.00;52574.47;5061028;28;20427;-67
2024/02/19 08:18:24;;;;;;;;;;;;;;;-144.99;100.00;52586.69;5055267;28;20568;-67
2024/02/19 08:20:51;;;;;;;;;;;;;;;-144.99;100.00;52619.31;5058365;28;20431;-67
2024/02/19 08:23:18;;;;;;;;;;;;;;;-144.99;100.00;52578.53;5061884;28;19928;-67
2024/02/19 08:25:44;;;;;;;;;;;;;;;-144.99;100.00;52603.00;5064132;28;20425;-67
2024/02/19 08:28:12;;;;;;;;;;;;;;;-144.99;100.00;52584.66;5052319;28;19929;-67
2024/02/19 08:30:38;;;;;;;;;;;;;;;-144.99;100.00;52607.09;5062529;28;20369;-67
2024/02/19 08:33:05;;;;;;;;;;;;;;;-144.99;100.00;52570.38;5054241;28;20469;-67
2024/02/19 08:35:31;;;;;;;;;;;;;;;-144.99;100.00;52574.47;5058509;28;20023;-67
2024/02/19 08:37:59;;;;;;;;;;;;;;;-144.99;100.00;52566.31;5057879;28;20351;-67
2024/02/19 08:40:25;;;;;;;;;;;;;;;-144.99;100.00;52607.09;5050327;28;19977;-67
2024/02/19 08:42:52;;;;;;;;;;;;;;;-144.99;100.00;52584.66;5062925;28;20039;-67
2024/02/19 08:45:20;;;;;;;;;;;;;;;-144.99;100.00;52611.16;5059401;28;19928;-67
2024/02/19 08:47:47;;;;;;;;;;;;;;;-144.99;100.00;52607.09;5068813;28;20032;-67
2024/02/19 08:50:14;;;;;;;;;;;;;;;-144.99;100.00;52590.78;5061866;28;19928;-67
2024/02/19 08:52:40;;;;;;;;;;;;;;;-144.99;100.00;52576.50;5062449;28;19939;-67
2024/02/19 08:55:07;;;;;;;;;;;;;;;-144.99;100.00;52625.44;5063021;28;20028;-67
2024/02/19 08:57:33;;;;;;;;;;;;;;;-144.99;100.00;52611.16;5064609;28;19924;-67
2024/02/19 09:00:00;;;;;;;;;;;;;;;-144.99;100.00;52590.78;5059232;28;19929;-67
2024/02/19 09:02:28;;;;;;;;;;;;;;;-144.99;100.00;52574.47;5062669;28;20342;-68
2024/02/19 09:04:54;;;;;;;;;;;;;;;-144.99;100.00;52594.84;5057671;28;20037;-68
2024/02/19 09:07:20;;;;;;;;;;;;;;;-144.99;100.00;52554.09;5067352;28;19944;-67
2024/02/19 09:09:47;;;;;;;;;;;;;;;-144.99;100.00;52598.94;5060833;28;20165;-67
2024/02/19 09:12:13;;;;;;;;;;;;;;;-144.99;100.00;52621.34;5059976;28;20420;-67
2024/02/19 09:14:40;;;;;;;;;;;;;;;-144.99;100.00;52617.28;5052073;28;19994;-68
2024/02/19 09:17:07;;;;;;;;;;;;;;;-144.99;100.00;52596.88;5068818;28;20220;-68
2024/02/19 09:19:35;;;;;;;;;;;;;;;-144.99;100.00;52582.63;5061132;28;19940;-68
2024/02/19 09:22:01;;;;;;;;;;;;;;;-144.99;100.00;52603.00;5059554;28;20453;-67
2024/02/19 09:24:28;;;;;;;;;;;;;;;-144.99;100.00;52578.53;5058955;28;20012;-67
2024/02/19 09:26:54;;;;;;;;;;;;;;;-144.99;100.00;52582.63;5069950;28;19932;-68
2024/02/19 09:29:21;;;;;;;;;;;;;;;-144.99;100.00;52564.28;5058557;28;20035;-68
2024/02/19 09:31:47;;;;;;;;;;;;;;;-144.99;100.00;52592.81;5064984;28;19928;-68
2024/02/19 09:34:14;;;;;;;;;;;;;;;-144.99;100.00;52598.94;5055882;28;19928;-68
2024/02/19 09:36:43;;;;;;;;;;;;;;;-144.99;100.00;52590.78;5067350;28;19928;-67
2024/02/19 09:39:10;;;;;;;;;;;;;;;-144.99;100.00;52607.09;5058079;28;20081;-67
2024/02/19 09:41:37;;;;;;;;;;;;;;;-144.99;100.00;52623.38;5054597;28;20028;-67
2024/02/19 09:44:03;;;;;;;;;;;;;;;-144.99;100.00;52558.16;5059432;28;20060;-68
2024/02/19 09:46:30;;;;;;;;;;;;;;;-144.99;100.00;52600.97;5067515;28;19969;-68
2024/02/19 09:49:00;;;;;;;;;;;;;;;-144.99;100.00;52578.53;5054969;28;20531;-67
2024/02/19 09:51:29;;;;;;;;;;;;;;;-144.99;100.00;52611.16;5058455;28;20004;-67
2024/02/19 09:53:58;;;;;;;;;;;;;;;-144.99;100.00;52560.19;5061461;28;20360;-67
2024/02/19 09:56:26;;;;;;;;;;;;;;;-144.99;100.00;52578.53;5063140;28;19974;-67
2024/02/19 09:58:52;;;;;;;;;;;;;;;-144.99;100.00;52594.84;5057534;28;20424;-67
2024/02/19 10:01:19;;;;;;;;;;;;;;;-144.99;100.00;52574.47;5054878;28;19940;-67
2024/02/19 10:03:45;;;;;;;;;;;;;;;-144.99;100.00;52590.78;5062204;28;19992;-67
2024/02/19 10:06:12;;;;;;;;;;;;;;;-144.99;100.00;52590.78;5061697;28;20358;-67
2024/02/19 10:08:38;;;;;;;;;;;;;;;-144.99;100.00;52547.97;5063268;28;20024;-67
2024/02/19 10:11:08;;;;;;;;;;;;;;;-144.99;100.00;52572.44;5053074;28;19971;-68
2024/02/19 10:13:36;;;;;;;;;;;;;;;-144.99;100.00;52590.78;5059375;28;20016;-67
2024/02/19 10:16:03;;;;;;;;;;;;;;;-144.99;100.00;52594.84;5063269;28;19974;-67
2024/02/19 10:18:30;;;;;;;;;;;;;;;-144.99;100.00;52556.13;5052984;28;20362;-67
2024/02/19 10:20:58;;;;;;;;;;;;;;;-144.99;100.00;52594.84;5062768;28;20040;-67
2024/02/19 10:23:25;;;;;;;;;;;;;;;-144.99;100.00;52594.84;5063891;28;19935;-67
2024/02/19 10:25:51;;;;;;;;;;;;;;;-144.99;100.00;52588.75;5056930;28;19925;-67
2024/02/19 10:28:21;;;;;;;;;;;;;;;-144.99;100.00;52582.63;5058456;28;19998;-66
2024/02/19 10:30:48;;;;;;;;;;;;;;;-144.99;100.00;52574.47;5050371;28;19929;-68
2024/02/19 10:33:14;;;;;;;;;;;;;;;-144.99;100.00;52578.53;5063949;28;19925;-67
2024/02/19 10:35:41;;;;;;;;;;;;;;;-144.99;100.00;52570.38;5060542;28;20023;-67
2024/02/19 10:38:09;;;;;;;;;;;;;;;-144.99;100.00;52545.94;5054539;28;20044;-68
2024/02/19 10:40:36;;;;;;;;;;;;;;;-144.99;100.00;52578.53;5051843;28;19935;-67
2024/02/19 10:43:03;;;;;;;;;;;;;;;-144.99;100.00;52594.84;5056741;28;19932;-68
2024/02/19 10:45:32;;;;;;;;;;;;;;;-144.99;100.00;52572.44;5041528;28;19924;-68
2024/02/19 10:47:59;;;;;;;;;;;;;;;-144.99;100.00;52531.66;5059839;28;20027;-68
2024/02/19 10:50:30;;;;;;;;;;;;;;;-144.99;100.00;52594.84;5060235;28;20286;-68
2024/02/19 10:52:58;;;;;;;;;;;;;;;-144.99;100.00;52582.63;5053998;28;19929;-68
2024/02/19 10:55:27;;;;;;;;;;;;;;;-144.99;100.00;52547.97;5063016;28;20019;-69
2024/02/19 10:57:54;;;;;;;;;;;;;;;-144.99;100.00;52521.47;5056253;28;19990;-69
2024/02/19 11:00:25;;;;;;;;;;;;;;;-144.99;100.00;52586.69;5062437;28;19983;-68
2024/02/19 11:03:02;;;;;;;;;;;;;;;-144.99;100.00;52545.94;5052372;28;19935;-65
2024/02/19 11:05:31;;;;;;;;;;;;;;;-144.99;100.00;52572.44;5060162;28;19932;-68
2024/02/19 11:07:58;;;;;;;;;;;;;;;-144.99;100.00;52582.63;5054680;28;20038;-68
2024/02/19 11:10:24;;;;;;;;;;;;;;;-144.99;100.00;52545.94;5054285;28;20409;-69
2024/02/19 11:12:51;;;;;;;;;;;;;;;-144.99;100.00;52484.78;5059947;28;19963;-68
2024/02/19 11:15:20;;;;;;;;;;;;;;;-144.99;100.00;52521.47;5069731;28;19932;-68
2024/02/19 11:17:48;;;;;;;;;;;;;;;-144.99;100.00;52545.94;5051759;28;20049;-68
2024/02/19 11:20:24;;;;;;;;;;;;;;;-144.99;100.00;52501.09;5062797;28;19928;-68
2024/02/19 11:22:51;;;;;;;;;;;;;;;-144.99;100.00;52456.25;5055208;28;20018;-68
2024/02/19 11:25:17;;;;;;;;;;;;;;;-144.99;100.00;52529.63;5061112;28;20386;-68
2024/02/19 11:27:49;;;;;;;;;;;;;;;-144.99;100.00;52550.00;5055494;28;19933;-68
2024/02/19 11:30:16;;;;;;;;;;;;;;;-144.99;100.00;52566.31;5054609;28;19964;-68
2024/02/19 11:32:44;;;;;;;;;;;;;;;-144.99;100.00;52521.47;5056463;28;19933;-68
2024/02/19 11:35:14;;;;;;;;;;;;;;;-144.99;100.00;52550.00;5053439;28;21562;-69
2024/02/19 11:37:44;;;;;;;;;;;;;;;-144.99;100.00;52566.31;5062118;28;19940;-68
2024/02/19 11:40:11;;;;;;;;;;;;;;;-144.99;100.00;52529.63;5050420;28;20398;-68
2024/02/19 11:42:37;;;;;;;;;;;;;;;-144.99;100.00;52415.47;5055797;28;19928;-68
2024/02/19 11:45:04;;;;;;;;;;;;;;;-144.99;100.00;52382.88;5055882;28;19971;-68
2024/02/19 11:47:31;;;;;;;;;;;;;;;-144.99;100.00;52484.78;5068428;28;19971;-68
2024/02/19 11:49:57;;;;;;;;;;;;;;;-144.99;100.00;52533.69;5059945;28;19986;-68
2024/02/19 11:52:24;;;;;;;;;;;;;;;-144.99;100.00;52509.25;5061503;28;19928;-68
2024/02/19 11:54:54;;;;;;;;;;;;;;;-144.99;100.00;52362.50;5055618;28;19924;-69
2024/02/19 11:57:22;;;;;;;;;;;;;;;-144.99;100.00;52444.03;5063640;28;19924;-67
2024/02/19 11:59:49;;;;;;;;;;;;;;;-144.99;94.90;52492.94;5057226;28;20069;-68
2024/02/19 12:02:18;;;;;;;;;;;;;;;-144.99;100.00;52537.78;5062194;28;19932;-67
2024/02/19 12:04:50;;;;;;;;;;;;;;;-144.99;100.00;52568.34;5062048;28;20348;-67
2024/02/19 12:07:17;;;;;;;;;;;;;;;-144.99;100.00;52566.31;5053501;28;19940;-67
2024/02/19 12:09:44;;;;;;;;;;;;;;;-144.99;100.00;52578.53;5054049;28;20018;-66
2024/02/19 12:12:13;;;;;;;;;;;;;;;-144.99;100.00;52580.59;5057874;28;20499;-67
2024/02/19 12:14:43;;;;;;;;;;;;;;;-144.99;100.00;52590.78;5054637;28;19972;-66
2024/02/19 12:17:09;;;;;;;;;;;;;;;-144.99;100.00;52566.31;5051291;28;19978;-67